Terminal Aerodrome Forecast
Issued by NWS Hastings, NE

Current Version | Previous Version | Text Only | Print | Product List | Glossary On
Versions: 1 2 3 4 5 6 7 8 9 10 11 12 13 14 15 16 17 18 19 20
000
FTUS45 KGID 012328
TAFEAR
TAF
KEAR 012328Z 0200/0224 03007KT P6SM SCT060 BKN150
     FM020700 35011KT 6SM -SHRA SCT020 OVC060
      TEMPO 0207/0211 3SM RA BR SCT015 BKN025
     FM021100 35014G18KT 6SM -RA BKN025
     FM021600 34018G26KT P6SM SCT025 BKN050
     FM022000 32012KT P6SM SCT050
      AMD LTD TO CLD VIS AND WIND=

USA.gov is the U.S. government's official web portal to all federal, state and local government web resources and services.